sensor_id;sensor_type;location;lat;lon;timestamp;pressure;altitude;pressure_sealevel;temperature;humidity
9257;BME280;4665;51.368;6.782;2023-04-12T00:01:40;100428.97;;;9.77;100.00
9257;BME280;4665;51.368;6.782;2023-04-12T00:04:06;100425.78;;;9.74;100.00
9257;BME280;4665;51.368;6.782;2023-04-12T00:06:31;100412.28;;;9.67;100.00
9257;BME280;4665;51.368;6.782;2023-04-12T00:08:58;100413.53;;;9.55;100.00
9257;BME280;4665;51.368;6.782;2023-04-12T00:11:24;100415.91;;;9.40;100.00
9257;BME280;4665;51.368;6.782;2023-04-12T00:13:50;100403.50;;;9.22;100.00
9257;BME280;4665;51.368;6.782;2023-04-12T00:16:16;100398.53;;;9.19;100.00
9257;BME280;4665;51.368;6.782;2023-04-12T00:18:42;100397.00;;;9.17;100.00
9257;BME280;4665;51.368;6.782;2023-04-12T00:21:10;100395.78;;;9.11;100.00
9257;BME280;4665;51.368;6.782;2023-04-12T00:23:35;100386.63;;;9.05;100.00
9257;BME280;4665;51.368;6.782;2023-04-12T00:26:03;100374.75;;;9.00;100.00
9257;BME280;4665;51.368;6.782;2023-04-12T00:28:28;100377.44;;;9.00;100.00
9257;BME280;4665;51.368;6.782;2023-04-12T00:30:54;100360.81;;;8.98;100.00
9257;BME280;4665;51.368;6.782;2023-04-12T00:33:20;100347.84;;;8.95;100.00
9257;BME280;4665;51.368;6.782;2023-04-12T00:35:45;100353.50;;;9.00;100.00
9257;BME280;4665;51.368;6.782;2023-04-12T00:38:10;100345.19;;;8.95;100.00
9257;BME280;4665;51.368;6.782;2023-04-12T00:40:40;100345.50;;;8.92;100.00
9257;BME280;4665;51.368;6.782;2023-04-12T00:43:05;100339.34;;;8.91;100.00
9257;BME280;4665;51.368;6.782;2023-04-12T00:45:32;100329.34;;;8.85;100.00
9257;BME280;4665;51.368;6.782;2023-04-12T00:47:57;100328.66;;;8.83;100.00
9257;BME280;4665;51.368;6.782;2023-04-12T00:50:23;100324.81;;;8.77;100.00
9257;BME280;4665;51.368;6.782;2023-04-12T00:52:49;100325.09;;;8.74;100.00
9257;BME280;4665;51.368;6.782;2023-04-12T00:55:16;100323.13;;;8.76;100.00
9257;BME280;4665;51.368;6.782;2023-04-12T00:57:42;100308.00;;;8.77;100.00
9257;BME280;4665;51.368;6.782;2023-04-12T01:00:09;100302.69;;;8.77;100.00
9257;BME280;4665;51.368;6.782;2023-04-12T01:02:42;100292.75;;;8.79;100.00
9257;BME280;4665;51.368;6.782;2023-04-12T01:05:11;100282.91;;;8.71;100.00
9257;BME280;4665;51.368;6.782;2023-04-12T01:11:07;100265.56;;;8.59;100.00
9257;BME280;4665;51.368;6.782;2023-04-12T01:16:28;100276.88;;;8.61;100.00
9257;BME280;4665;51.368;6.782;2023-04-12T01:19:00;100274.50;;;8.58;100.00
9257;BME280;4665;51.368;6.782;2023-04-12T01:24:36;100264.34;;;8.53;100.00
9257;BME280;4665;51.368;6.782;2023-04-12T01:27:20;100245.41;;;8.48;100.00
9257;BME280;4665;51.368;6.782;2023-04-12T01:29:48;100257.47;;;8.42;100.00
9257;BME280;4665;51.368;6.782;2023-04-12T01:32:15;100250.16;;;8.45;100.00
9257;BME280;4665;51.368;6.782;2023-04-12T01:34:43;100247.97;;;8.40;100.00
9257;BME280;4665;51.368;6.782;2023-04-12T01:37:08;100230.50;;;8.37;100.00
9257;BME280;4665;51.368;6.782;2023-04-12T01:39:34;100231.38;;;8.38;100.00
9257;BME280;4665;51.368;6.782;2023-04-12T01:42:00;100235.31;;;8.34;100.00
9257;BME280;4665;51.368;6.782;2023-04-12T01:44:25;100218.84;;;8.30;100.00
9257;BME280;4665;51.368;6.782;2023-04-12T01:46:51;100213.53;;;8.30;100.00
9257;BME280;4665;51.368;6.782;2023-04-12T01:49:17;100201.28;;;8.29;100.00
9257;BME280;4665;51.368;6.782;2023-04-12T01:52:11;100196.94;;;8.28;100.00
9257;BME280;4665;51.368;6.782;2023-04-12T01:54:39;100184.66;;;8.27;100.00
9257;BME280;4665;51.368;6.782;2023-04-12T01:57:06;100187.41;;;8.17;100.00
9257;BME280;4665;51.368;6.782;2023-04-12T01:59:40;100177.25;;;8.13;100.00
9257;BME280;4665;51.368;6.782;2023-04-12T02:02:10;100178.91;;;8.14;100.00
9257;BME280;4665;51.368;6.782;2023-04-12T02:04:37;100168.28;;;8.14;100.00
9257;BME280;4665;51.368;6.782;2023-04-12T02:07:02;100153.84;;;8.08;100.00
9257;BME280;4665;51.368;6.782;2023-04-12T02:09:28;100143.44;;;8.15;100.00
9257;BME280;4665;51.368;6.782;2023-04-12T02:11:53;100137.59;;;8.11;100.00
9257;BME280;4665;51.368;6.782;2023-04-12T02:14:20;100137.56;;;8.03;100.00
9257;BME280;4665;51.368;6.782;2023-04-12T02:16:46;100128.75;;;8.02;100.00
9257;BME280;4665;51.368;6.782;2023-04-12T02:19:12;100127.00;;;7.93;100.00
9257;BME280;4665;51.368;6.782;2023-04-12T02:21:39;100125.97;;;7.86;100.00
9257;BME280;4665;51.368;6.782;2023-04-12T02:24:05;100119.81;;;7.86;100.00
9257;BME280;4665;51.368;6.782;2023-04-12T02:26:31;100109.38;;;7.84;100.00
9257;BME280;4665;51.368;6.782;2023-04-12T02:28:56;100117.72;;;7.89;100.00
9257;BME280;4665;51.368;6.782;2023-04-12T02:31:22;100104.59;;;7.88;100.00
9257;BME280;4665;51.368;6.782;2023-04-12T02:33:49;100099.44;;;7.86;100.00
9257;BME280;4665;51.368;6.782;2023-04-12T02:36:15;100118.84;;;7.87;100.00
9257;BME280;4665;51.368;6.782;2023-04-12T02:38:43;100093.78;;;7.81;100.00
9257;BME280;4665;51.368;6.782;2023-04-12T02:41:18;100090.59;;;7.77;100.00
9257;BME280;4665;51.368;6.782;2023-04-12T02:43:45;100078.47;;;7.75;100.00
9257;BME280;4665;51.368;6.782;2023-04-12T02:46:19;100073.16;;;7.75;100.00
9257;BME280;4665;51.368;6.782;2023-04-12T02:48:46;100065.84;;;7.69;100.00
9257;BME280;4665;51.368;6.782;2023-04-12T02:51:13;100048.31;;;7.76;100.00
9257;BME280;4665;51.368;6.782;2023-04-12T02:53:40;100045.31;;;7.71;100.00
9257;BME280;4665;51.368;6.782;2023-04-12T02:56:06;100037.50;;;7.69;100.00
9257;BME280;4665;51.368;6.782;2023-04-12T02:58:33;100035.38;;;7.73;100.00
9257;BME280;4665;51.368;6.782;2023-04-12T03:01:00;100013.78;;;7.68;100.00
9257;BME280;4665;51.368;6.782;2023-04-12T03:03:26;100029.00;;;7.66;100.00
9257;BME280;4665;51.368;6.782;2023-04-12T03:05:55;100006.47;;;7.62;100.00
9257;BME280;4665;51.368;6.782;2023-04-12T03:08:22;100000.38;;;7.69;100.00
9257;BME280;4665;51.368;6.782;2023-04-12T03:10:48;99997.88;;;7.68;100.00
9257;BME280;4665;51.368;6.782;2023-04-12T03:13:13;99992.91;;;7.65;100.00
9257;BME280;4665;51.368;6.782;2023-04-12T03:15:39;99977.00;;;7.65;100.00
9257;BME280;4665;51.368;6.782;2023-04-12T03:18:04;99964.09;;;7.70;100.00
9257;BME280;4665;51.368;6.782;2023-04-12T03:20:30;99951.31;;;7.65;100.00
9257;BME280;4665;51.368;6.782;2023-04-12T03:22:56;99951.09;;;7.58;100.00
9257;BME280;4665;51.368;6.782;2023-04-12T03:25:21;99939.81;;;7.56;100.00
9257;BME280;4665;51.368;6.782;2023-04-12T03:27:47;99936.56;;;7.63;100.00
9257;BME280;4665;51.368;6.782;2023-04-12T03:30:12;99940.50;;;7.58;100.00
9257;BME280;4665;51.368;6.782;2023-04-12T03:32:39;99935.19;;;7.58;100.00
9257;BME280;4665;51.368;6.782;2023-04-12T03:35:07;99923.63;;;7.59;100.00
9257;BME280;4665;51.368;6.782;2023-04-12T03:37:33;99926.09;;;7.61;100.00
9257;BME280;4665;51.368;6.782;2023-04-12T03:39:59;99910.03;;;7.63;100.00
9257;BME280;4665;51.368;6.782;2023-04-12T03:42:26;99901.06;;;7.55;100.00
9257;BME280;4665;51.368;6.782;2023-04-12T03:44:52;99899.22;;;7.56;100.00
9257;BME280;4665;51.368;6.782;2023-04-12T03:47:18;99890.81;;;7.61;100.00
9257;BME280;4665;51.368;6.782;2023-04-12T03:49:47;99882.03;;;7.60;100.00
9257;BME280;4665;51.368;6.782;2023-04-12T03:52:13;99875.72;;;7.61;100.00
9257;BME280;4665;51.368;6.782;2023-04-12T03:54:39;99871.78;;;7.65;100.00
9257;BME280;4665;51.368;6.782;2023-04-12T03:57:04;99872.25;;;7.61;100.00
9257;BME280;4665;51.368;6.782;2023-04-12T03:59:30;99858.72;;;7.64;100.00
9257;BME280;4665;51.368;6.782;2023-04-12T04:01:58;99845.75;;;7.61;100.00
9257;BME280;4665;51.368;6.782;2023-04-12T04:04:25;99848.28;;;7.70;100.00
9257;BME280;4665;51.368;6.782;2023-04-12T04:06:51;99841.00;;;7.72;100.00
9257;BME280;4665;51.368;6.782;2023-04-12T04:09:18;99843.81;;;7.71;100.00
9257;BME280;4665;51.368;6.782;2023-04-12T04:11:43;99836.34;;;7.66;100.00
9257;BME280;4665;51.368;6.782;2023-04-12T04:14:09;99820.75;;;7.63;100.00
9257;BME280;4665;51.368;6.782;2023-04-12T04:16:34;99807.66;;;7.62;100.00
9257;BME280;4665;51.368;6.782;2023-04-12T04:19:00;99808.81;;;7.59;100.00
9257;BME280;4665;51.368;6.782;2023-04-12T04:21:26;99820.06;;;7.61;100.00
9257;BME280;4665;51.368;6.782;2023-04-12T04:23:55;99814.13;;;7.59;100.00
9257;BME280;4665;51.368;6.782;2023-04-12T04:26:22;99813.94;;;7.61;100.00
9257;BME280;4665;51.368;6.782;2023-04-12T04:28:56;99798.50;;;7.56;100.00
9257;BME280;4665;51.368;6.782;2023-04-12T04:31:29;99799.34;;;7.56;100.00
9257;BME280;4665;51.368;6.782;2023-04-12T04:34:05;99791.38;;;7.56;100.00
9257;BME280;4665;51.368;6.782;2023-04-12T04:36:35;99793.75;;;7.59;100.00
9257;BME280;4665;51.368;6.782;2023-04-12T04:39:03;99791.91;;;7.60;100.00
9257;BME280;4665;51.368;6.782;2023-04-12T04:41:38;99786.47;;;7.62;100.00
9257;BME280;4665;51.368;6.782;2023-04-12T04:44:05;99785.13;;;7.57;100.00
9257;BME280;4665;51.368;6.782;2023-04-12T04:46:35;99781.16;;;7.62;100.00
9257;BME280;4665;51.368;6.782;2023-04-12T04:49:02;99779.47;;;7.61;100.00
9257;BME280;4665;51.368;6.782;2023-04-12T04:51:28;99770.56;;;7.62;100.00
9257;BME280;4665;51.368;6.782;2023-04-12T04:53:54;99777.69;;;7.69;100.00
9257;BME280;4665;51.368;6.782;2023-04-12T04:56:20;99770.72;;;7.60;100.00
9257;BME280;4665;51.368;6.782;2023-04-12T04:58:48;99766.56;;;7.57;100.00
9257;BME280;4665;51.368;6.782;2023-04-12T05:01:14;99763.91;;;7.66;100.00
9257;BME280;4665;51.368;6.782;2023-04-12T05:03:41;99771.56;;;7.69;100.00
9257;BME280;4665;51.368;6.782;2023-04-12T05:06:09;99766.78;;;7.72;100.00
9257;BME280;4665;51.368;6.782;2023-04-12T05:08:35;99764.25;;;7.63;100.00
9257;BME280;4665;51.368;6.782;2023-04-12T05:11:00;99758.59;;;7.57;100.00
9257;BME280;4665;51.368;6.782;2023-04-12T05:13:26;99754.66;;;7.62;100.00
9257;BME280;4665;51.368;6.782;2023-04-12T05:15:51;99749.31;;;7.53;100.00
9257;BME280;4665;51.368;6.782;2023-04-12T05:18:19;99755.63;;;7.52;100.00
9257;BME280;4665;51.368;6.782;2023-04-12T05:20:47;99757.91;;;7.47;100.00
9257;BME280;4665;51.368;6.782;2023-04-12T05:23:13;99758.56;;;7.49;100.00
9257;BME280;4665;51.368;6.782;2023-04-12T05:25:44;99749.59;;;7.42;100.00
9257;BME280;4665;51.368;6.782;2023-04-12T05:28:12;99753.25;;;7.41;100.00
9257;BME280;4665;51.368;6.782;2023-04-12T05:30:38;99733.03;;;7.40;100.00
9257;BME280;4665;51.368;6.782;2023-04-12T05:33:04;99744.00;;;7.45;100.00
9257;BME280;4665;51.368;6.782;2023-04-12T05:35:30;99729.41;;;7.41;100.00
9257;BME280;4665;51.368;6.782;2023-04-12T05:37:56;99712.16;;;7.37;100.00
9257;BME280;4665;51.368;6.782;2023-04-12T05:40:21;99718.47;;;7.44;100.00
9257;BME280;4665;51.368;6.782;2023-04-12T05:42:46;99718.44;;;7.36;100.00
9257;BME280;4665;51.368;6.782;2023-04-12T05:45:12;99723.41;;;7.39;100.00
9257;BME280;4665;51.368;6.782;2023-04-12T05:47:37;99698.91;;;7.37;100.00
9257;BME280;4665;51.368;6.782;2023-04-12T05:50:03;99706.84;;;7.37;100.00
9257;BME280;4665;51.368;6.782;2023-04-12T05:52:28;99689.31;;;7.36;100.00
9257;BME280;4665;51.368;6.782;2023-04-12T05:54:54;99697.88;;;7.30;100.00
9257;BME280;4665;51.368;6.782;2023-04-12T05:57:20;99691.75;;;7.29;100.00
9257;BME280;4665;51.368;6.782;2023-04-12T05:59:45;99698.88;;;7.29;100.00
9257;BME280;4665;51.368;6.782;2023-04-12T06:02:11;99701.88;;;7.34;100.00
9257;BME280;4665;51.368;6.782;2023-04-12T06:04:36;99680.16;;;7.30;100.00
9257;BME280;4665;51.368;6.782;2023-04-12T06:07:05;99693.75;;;7.35;100.00
9257;BME280;4665;51.368;6.782;2023-04-12T06:09:30;99681.22;;;7.46;100.00
9257;BME280;4665;51.368;6.782;2023-04-12T06:11:56;99681.56;;;7.43;100.00
9257;BME280;4665;51.368;6.782;2023-04-12T06:14:22;99680.56;;;7.44;100.00
9257;BME280;4665;51.368;6.782;2023-04-12T06:16:47;99686.34;;;7.39;100.00
9257;BME280;4665;51.368;6.782;2023-04-12T06:19:13;99669.63;;;7.38;100.00
9257;BME280;4665;51.368;6.782;2023-04-12T06:21:38;99681.56;;;7.43;100.00
9257;BME280;4665;51.368;6.782;2023-04-12T06:24:04;99666.78;;;7.40;100.00
9257;BME280;4665;51.368;6.782;2023-04-12T06:26:29;99678.38;;;7.39;100.00
9257;BME280;4665;51.368;6.782;2023-04-12T06:28:55;99654.53;;;7.39;100.00
9257;BME280;4665;51.368;6.782;2023-04-12T06:31:20;99649.28;;;7.47;100.00
9257;BME280;4665;51.368;6.782;2023-04-12T06:33:46;99646.94;;;7.44;100.00
9257;BME280;4665;51.368;6.782;2023-04-12T06:36:11;99652.56;;;7.49;100.00
9257;BME280;4665;51.368;6.782;2023-04-12T06:38:38;99648.59;;;7.53;100.00
9257;BME280;4665;51.368;6.782;2023-04-12T06:41:05;99650.75;;;7.50;100.00
9257;BME280;4665;51.368;6.782;2023-04-12T06:43:30;99648.75;;;7.52;100.00
9257;BME280;4665;51.368;6.782;2023-04-12T06:45:56;99632.69;;;7.53;100.00
9257;BME280;4665;51.368;6.782;2023-04-12T06:48:22;99639.97;;;7.51;100.00
9257;BME280;4665;51.368;6.782;2023-04-12T06:50:48;99625.91;;;7.51;100.00
9257;BME280;4665;51.368;6.782;2023-04-12T06:53:13;99626.44;;;7.54;100.00
9257;BME280;4665;51.368;6.782;2023-04-12T06:55:39;99614.97;;;7.54;100.00
9257;BME280;4665;51.368;6.782;2023-04-12T06:58:05;99606.03;;;7.55;100.00
9257;BME280;4665;51.368;6.782;2023-04-12T07:00:30;99616.81;;;7.53;100.00
9257;BME280;4665;51.368;6.782;2023-04-12T07:02:57;99603.88;;;7.58;100.00
9257;BME280;4665;51.368;6.782;2023-04-12T07:05:22;99605.88;;;7.56;100.00
9257;BME280;4665;51.368;6.782;2023-04-12T07:07:48;99598.75;;;7.57;100.00
9257;BME280;4665;51.368;6.782;2023-04-12T07:10:13;99588.31;;;7.55;100.00
9257;BME280;4665;51.368;6.782;2023-04-12T07:12:39;99598.44;;;7.60;100.00
9257;BME280;4665;51.368;6.782;2023-04-12T07:15:06;99603.72;;;7.60;100.00
9257;BME280;4665;51.368;6.782;2023-04-12T07:17:32;99594.47;;;7.64;100.00
9257;BME280;4665;51.368;6.782;2023-04-12T07:19:57;99586.50;;;7.64;100.00
9257;BME280;4665;51.368;6.782;2023-04-12T07:22:23;99583.03;;;7.64;100.00
9257;BME280;4665;51.368;6.782;2023-04-12T07:24:49;99583.69;;;7.74;100.00
9257;BME280;4665;51.368;6.782;2023-04-12T07:27:15;99586.34;;;7.74;100.00
9257;BME280;4665;51.368;6.782;2023-04-12T07:29:40;99578.25;;;7.75;100.00
9257;BME280;4665;51.368;6.782;2023-04-12T07:32:07;99588.53;;;7.87;100.00
9257;BME280;4665;51.368;6.782;2023-04-12T07:34:33;99575.09;;;7.80;100.00
9257;BME280;4665;51.368;6.782;2023-04-12T07:37:01;99580.38;;;7.88;100.00
9257;BME280;4665;51.368;6.782;2023-04-12T07:39:26;99568.78;;;7.81;100.00
9257;BME280;4665;51.368;6.782;2023-04-12T07:41:54;99572.59;;;7.78;100.00
9257;BME280;4665;51.368;6.782;2023-04-12T07:44:20;99573.09;;;7.82;100.00
9257;BME280;4665;51.368;6.782;2023-04-12T07:46:45;99563.47;;;7.81;100.00
9257;BME280;4665;51.368;6.782;2023-04-12T07:51:45;99561.47;;;7.91;100.00
9257;BME280;4665;51.368;6.782;2023-04-12T07:54:10;99561.81;;;7.96;100.00
9257;BME280;4665;51.368;6.782;2023-04-12T07:56:37;99565.47;;;7.87;100.00
9257;BME280;4665;51.368;6.782;2023-04-12T07:59:02;99563.81;;;7.86;100.00
9257;BME280;4665;51.368;6.782;2023-04-12T08:01:28;99560.50;;;7.84;100.00
9257;BME280;4665;51.368;6.782;2023-04-12T08:03:54;99561.16;;;7.86;100.00
9257;BME280;4665;51.368;6.782;2023-04-12T08:06:19;99554.22;;;7.85;100.00
9257;BME280;4665;51.368;6.782;2023-04-12T08:08:45;99546.72;;;7.89;100.00
9257;BME280;4665;51.368;6.782;2023-04-12T08:11:10;99562.63;;;7.89;100.00
9257;BME280;4665;51.368;6.782;2023-04-12T08:13:36;99566.78;;;7.91;100.00
9257;BME280;4665;51.368;6.782;2023-04-12T08:16:01;99567.94;;;7.89;100.00
9257;BME280;4665;51.368;6.782;2023-04-12T08:18:27;99561.31;;;7.93;100.00
9257;BME280;4665;51.368;6.782;2023-04-12T08:20:54;99559.34;;;7.95;100.00
9257;BME280;4665;51.368;6.782;2023-04-12T08:23:20;99547.91;;;7.94;100.00
9257;BME280;4665;51.368;6.782;2023-04-12T08:25:46;99551.38;;;7.95;100.00
9257;BME280;4665;51.368;6.782;2023-04-12T08:28:11;99546.22;;;7.93;100.00
9257;BME280;4665;51.368;6.782;2023-04-12T08:30:37;99548.72;;;7.95;100.00
9257;BME280;4665;51.368;6.782;2023-04-12T08:33:02;99555.34;;;7.99;100.00
9257;BME280;4665;51.368;6.782;2023-04-12T08:35:28;99547.06;;;8.02;100.00
9257;BME280;4665;51.368;6.782;2023-04-12T08:37:53;99549.72;;;8.02;100.00
9257;BME280;4665;51.368;6.782;2023-04-12T08:40:19;99558.66;;;8.09;100.00
9257;BME280;4665;51.368;6.782;2023-04-12T08:42:45;99544.41;;;8.10;100.00
9257;BME280;4665;51.368;6.782;2023-04-12T08:45:12;99552.84;;;8.14;100.00
9257;BME280;4665;51.368;6.782;2023-04-12T08:47:40;99555.50;;;8.14;100.00
9257;BME280;4665;51.368;6.782;2023-04-12T08:50:08;99545.88;;;8.13;100.00
9257;BME280;4665;51.368;6.782;2023-04-12T08:52:36;99551.50;;;8.18;100.00
9257;BME280;4665;51.368;6.782;2023-04-12T08:55:02;99557.31;;;8.21;100.00
9257;BME280;4665;51.368;6.782;2023-04-12T08:57:28;99541.72;;;8.18;100.00
9257;BME280;4665;51.368;6.782;2023-04-12T08:59:55;99546.88;;;8.20;100.00
9257;BME280;4665;51.368;6.782;2023-04-12T09:02:21;99547.53;;;8.22;100.00
9257;BME280;4665;51.368;6.782;2023-04-12T09:04:48;99547.84;;;8.27;100.00
9257;BME280;4665;51.368;6.782;2023-04-12T09:07:14;99552.81;;;8.30;100.00
9257;BME280;4665;51.368;6.782;2023-04-12T09:09:44;99552.81;;;8.30;100.00
9257;BME280;4665;51.368;6.782;2023-04-12T09:12:10;99540.19;;;8.32;100.00
9257;BME280;4665;51.368;6.782;2023-04-12T09:14:37;99546.00;;;8.36;100.00
9257;BME280;4665;51.368;6.782;2023-04-12T09:17:03;99547.66;;;8.37;100.00
9257;BME280;4665;51.368;6.782;2023-04-12T09:19:33;99553.47;;;8.40;100.00
9257;BME280;4665;51.368;6.782;2023-04-12T09:21:59;99542.69;;;8.42;100.00
9257;BME280;4665;51.368;6.782;2023-04-12T09:24:25;99546.50;;;8.48;100.00
9257;BME280;4665;51.368;6.782;2023-04-12T09:27:02;99537.34;;;8.50;100.00
9257;BME280;4665;51.368;6.782;2023-04-12T09:29:29;99538.31;;;8.57;100.00
9257;BME280;4665;51.368;6.782;2023-04-12T09:34:21;99536.81;;;8.63;100.00
9257;BME280;4665;51.368;6.782;2023-04-12T09:36:46;99536.81;;;8.63;100.00
9257;BME280;4665;51.368;6.782;2023-04-12T09:39:12;99533.63;;;8.68;100.00
9257;BME280;4665;51.368;6.782;2023-04-12T09:41:37;99532.13;;;8.73;100.00
9257;BME280;4665;51.368;6.782;2023-04-12T09:44:03;99530.13;;;8.75;100.00
9257;BME280;4665;51.368;6.782;2023-04-12T09:46:28;99531.09;;;8.82;100.00
9257;BME280;4665;51.368;6.782;2023-04-12T09:48:55;99530.38;;;8.89;100.00
9257;BME280;4665;51.368;6.782;2023-04-12T09:51:32;99534.53;;;8.91;100.00
9257;BME280;4665;51.368;6.782;2023-04-12T09:54:03;99532.88;;;8.90;100.00
9257;BME280;4665;51.368;6.782;2023-04-12T09:56:32;99526.56;;;8.91;100.00
9257;BME280;4665;51.368;6.782;2023-04-12T09:59:04;99521.06;;;8.93;100.00
9257;BME280;4665;51.368;6.782;2023-04-12T10:01:34;99526.06;;;8.88;100.00
9257;BME280;4665;51.368;6.782;2023-04-12T10:04:04;99530.38;;;8.89;100.00
9257;BME280;4665;51.368;6.782;2023-04-12T10:06:31;99533.38;;;8.94;100.00
9257;BME280;4665;51.368;6.782;2023-04-12T10:08:57;99526.69;;;8.98;100.00
9257;BME280;4665;51.368;6.782;2023-04-12T10:11:26;99526.16;;;9.02;100.00
9257;BME280;4665;51.368;6.782;2023-04-12T10:13:53;99525.63;;;9.07;100.00
9257;BME280;4665;51.368;6.782;2023-04-12T10:16:21;99522.84;;;9.00;100.00
9257;BME280;4665;51.368;6.782;2023-04-12T10:18:47;99523.34;;;9.04;100.00
9257;BME280;4665;51.368;6.782;2023-04-12T10:21:14;99525.22;;;9.18;100.00
9257;BME280;4665;51.368;6.782;2023-04-12T10:23:43;99525.00;;;9.28;100.00
9257;BME280;4665;51.368;6.782;2023-04-12T10:26:09;99521.00;;;9.32;100.00
9257;BME280;4665;51.368;6.782;2023-04-12T10:28:35;99517.25;;;9.41;100.00
9257;BME280;4665;51.368;6.782;2023-04-12T10:31:26;99522.41;;;9.43;100.00
9257;BME280;4665;51.368;6.782;2023-04-12T10:33:53;99525.19;;;9.50;100.00
9257;BME280;4665;51.368;6.782;2023-04-12T10:36:19;99523.88;;;9.45;100.00
9257;BME280;4665;51.368;6.782;2023-04-12T10:38:46;99517.34;;;9.56;100.00
9257;BME280;4665;51.368;6.782;2023-04-12T10:41:16;99521.38;;;9.67;100.00
9257;BME280;4665;51.368;6.782;2023-04-12T10:49:15;99526.31;;;9.55;100.00
9257;BME280;4665;51.368;6.782;2023-04-12T10:56:54;99502.88;;;9.13;100.00
9257;BME280;4665;51.368;6.782;2023-04-12T10:59:19;99508.34;;;9.11;100.00
9257;BME280;4665;51.368;6.782;2023-04-12T11:04:29;99503.28;;;8.93;100.00
9257;BME280;4665;51.368;6.782;2023-04-12T11:06:59;99503.81;;;8.89;100.00
9257;BME280;4665;51.368;6.782;2023-04-12T11:09:28;99506.00;;;8.85;100.00
9257;BME280;4665;51.368;6.782;2023-04-12T11:14:36;99513.47;;;8.81;100.00
9257;BME280;4665;51.368;6.782;2023-04-12T11:19:42;99500.22;;;8.81;100.00
9257;BME280;4665;51.368;6.782;2023-04-12T11:22:12;99502.88;;;8.81;100.00
9257;BME280;4665;51.368;6.782;2023-04-12T11:24:39;99506.16;;;8.92;100.00
9257;BME280;4665;51.368;6.782;2023-04-12T11:27:05;99507.78;;;8.93;100.00
9257;BME280;4665;51.368;6.782;2023-04-12T11:29:31;99503.38;;;9.08;100.00
9257;BME280;4665;51.368;6.782;2023-04-12T11:32:02;99506.63;;;9.18;100.00
9257;BME280;4665;51.368;6.782;2023-04-12T11:34:34;99504.09;;;9.25;100.00
9257;BME280;4665;51.368;6.782;2023-04-12T11:37:01;99514.50;;;9.35;100.00
9257;BME280;4665;51.368;6.782;2023-04-12T11:39:32;99518.75;;;9.44;100.00
9257;BME280;4665;51.368;6.782;2023-04-12T11:41:58;99525.94;;;9.58;100.00
9257;BME280;4665;51.368;6.782;2023-04-12T11:44:26;99529.91;;;9.62;100.00
9257;BME280;4665;51.368;6.782;2023-04-12T11:46:51;99517.25;;;9.64;100.00
9257;BME280;4665;51.368;6.782;2023-04-12T11:49:20;99505.25;;;9.68;100.00
9257;BME280;4665;51.368;6.782;2023-04-12T11:51:46;99494.09;;;9.73;100.00
9257;BME280;4665;51.368;6.782;2023-04-12T11:54:12;99488.59;;;9.89;100.00
9257;BME280;4665;51.368;6.782;2023-04-12T11:56:40;99493.59;;;10.07;100.00
9257;BME280;4665;51.368;6.782;2023-04-12T11:59:06;99496.91;;;10.39;100.00
9257;BME280;4665;51.368;6.782;2023-04-12T12:01:36;99492.06;;;10.43;100.00
9257;BME280;4665;51.368;6.782;2023-04-12T12:04:03;99495.25;;;10.68;100.00
9257;BME280;4665;51.368;6.782;2023-04-12T12:06:29;99491.81;;;10.74;100.00
9257;BME280;4665;51.368;6.782;2023-04-12T12:08:55;99488.41;;;10.80;100.00
9257;BME280;4665;51.368;6.782;2023-04-12T12:11:22;99488.03;;;10.83;100.00
9257;BME280;4665;51.368;6.782;2023-04-12T12:13:55;99486.41;;;10.82;100.00
9257;BME280;4665;51.368;6.782;2023-04-12T12:16:25;99476.41;;;10.69;100.00
9257;BME280;4665;51.368;6.782;2023-04-12T12:18:52;99469.34;;;10.62;100.00
9257;BME280;4665;51.368;6.782;2023-04-12T12:21:19;99467.72;;;10.61;100.00
9257;BME280;4665;51.368;6.782;2023-04-12T12:23:45;99465.66;;;10.63;100.00
9257;BME280;4665;51.368;6.782;2023-04-12T12:26:22;99477.97;;;10.64;100.00
9257;BME280;4665;51.368;6.782;2023-04-12T12:28:55;99484.50;;;10.61;100.00
9257;BME280;4665;51.368;6.782;2023-04-12T12:31:23;99483.69;;;10.61;100.00
9257;BME280;4665;51.368;6.782;2023-04-12T12:33:53;99484.03;;;10.72;100.00
9257;BME280;4665;51.368;6.782;2023-04-12T12:36:19;99486.47;;;10.74;100.00
9257;BME280;4665;51.368;6.782;2023-04-12T12:38:45;99484.13;;;10.79;100.00
9257;BME280;4665;51.368;6.782;2023-04-12T12:41:17;99481.44;;;10.79;100.00
9257;BME280;4665;51.368;6.782;2023-04-12T12:43:47;99465.00;;;10.76;100.00
9257;BME280;4665;51.368;6.782;2023-04-12T12:46:13;99473.50;;;10.86;100.00
9257;BME280;4665;51.368;6.782;2023-04-12T12:48:40;99474.16;;;10.88;100.00
9257;BME280;4665;51.368;6.782;2023-04-12T12:51:10;99472.19;;;10.97;100.00
9257;BME280;4665;51.368;6.782;2023-04-12T12:53:37;99480.84;;;10.99;100.00
9257;BME280;4665;51.368;6.782;2023-04-12T12:56:03;99472.84;;;10.99;100.00
9257;BME280;4665;51.368;6.782;2023-04-12T12:58:29;99462.44;;;11.04;100.00
9257;BME280;4665;51.368;6.782;2023-04-12T13:00:55;99461.63;;;11.03;100.00
9257;BME280;4665;51.368;6.782;2023-04-12T13:03:21;99452.66;;;11.11;100.00
9257;BME280;4665;51.368;6.782;2023-04-12T13:05:47;99459.72;;;11.19;100.00
9257;BME280;4665;51.368;6.782;2023-04-12T13:08:12;99442.63;;;11.34;100.00
9257;BME280;4665;51.368;6.782;2023-04-12T13:10:38;99455.31;;;11.54;100.00
9257;BME280;4665;51.368;6.782;2023-04-12T13:13:03;99455.94;;;11.56;100.00
9257;BME280;4665;51.368;6.782;2023-04-12T13:15:29;99463.31;;;11.54;100.00
9257;BME280;4665;51.368;6.782;2023-04-12T13:17:54;99457.16;;;11.53;100.00
9257;BME280;4665;51.368;6.782;2023-04-12T13:20:23;99459.78;;;11.75;100.00
9257;BME280;4665;51.368;6.782;2023-04-12T13:22:49;99458.13;;;12.02;100.00
9257;BME280;4665;51.368;6.782;2023-04-12T13:25:19;99458.22;;;12.15;100.00
9257;BME280;4665;51.368;6.782;2023-04-12T13:27:46;99453.63;;;12.03;100.00
9257;BME280;4665;51.368;6.782;2023-04-12T13:30:12;99449.47;;;11.93;100.00
9257;BME280;4665;51.368;6.782;2023-04-12T13:32:37;99460.19;;;11.78;100.00
9257;BME280;4665;51.368;6.782;2023-04-12T13:35:03;99455.97;;;11.63;100.00
9257;BME280;4665;51.368;6.782;2023-04-12T13:37:29;99462.75;;;11.58;100.00
9257;BME280;4665;51.368;6.782;2023-04-12T13:39:56;99470.22;;;11.48;100.00
9257;BME280;4665;51.368;6.782;2023-04-12T13:42:21;99480.78;;;11.35;100.00
9257;BME280;4665;51.368;6.782;2023-04-12T13:44:48;99476.78;;;11.03;100.00
9257;BME280;4665;51.368;6.782;2023-04-12T13:47:14;99486.16;;;10.62;100.00
9257;BME280;4665;51.368;6.782;2023-04-12T13:52:14;99511.91;;;10.02;100.00